Aviation Digital Data Service (ADDS)

Output produced by METARs form (2326 UTC 06 February 2016)
found at http://www.aviationweather.gov/adds/metars/
 
KIPT 062254Z 17014KT 10SM FEW070 04/M08 A3020 RMK AO2 SLP231 T00441078 $
KIPT 062154Z 19007KT 160V230 10SM FEW065 06/M08 A3019 RMK AO2 SLP228 T00611083 $
KIPT 062054Z 23006KT 10SM BKN065 08/M08 A3019 RMK AO2 SLP228 T00781083 56024 $
KIPT 061954Z 19007KT 10SM BKN065 07/M08 A3020 RMK AO2 SLP231 T00721078 $
KIPT 061854Z 17008KT 10SM OVC060 06/M07 A3022 RMK AO2 SLP240 T00561072 $
KIPT 061754Z 17007G15KT 10SM BKN070 04/M07 A3026 RMK AO2 SLP253 60000 T00391072 10050 21061 58034 $
KIPT 061654Z 10SM BKN070 03/M07 A3031 RMK AO2 SLP269 T00331072 $
KIPT 061554Z 12004KT 10SM OVC075 00/M06 A3034 RMK AO2 SLP281 T00001061 $
KIPT 061454Z 00000KT 10SM OVC070 M03/M07 A3036 RMK AO2 SLP290 60000 T10281067 58001 $
KIPT 061354Z 09003KT 10SM OVC075 M04/M07 A3037 RMK AO2 SLP292 T10441072 $
KIPT 061254Z 00000KT 10SM OVC075 M04/M07 A3037 RMK AO2 SNB09E19 SLP293 P0000 T10391072 $
KIPT 061154Z 00000KT 10SM SCT075 M06/M08 A3037 RMK AO2 SLP290 T10561083 11017 21061 51008 $
KIPT 061054Z AUTO 07003KT 10SM CLR M05/M08 A3035 RMK AO2 SLP286 T10501083 TSNO $
KIPT 060954Z AUTO 00000KT 10SM CLR M06/M09 A3036 RMK AO2 SLP287 T10561089 TSNO $
KIPT 060854Z AUTO 33003KT 10SM CLR M06/M08 A3034 RMK AO2 SLP281 T10561083 58005 TSNO $
KIPT 060754Z AUTO 00000KT 10SM CLR M04/M08 A3036 RMK AO2 SLP287 T10441083 TSNO $
KIPT 060654Z AUTO 00000KT 10SM CLR M04/M08 A3035 RMK AO2 SLP282 T10391083 TSNO $
KIPT 060554Z AUTO 00000KT 10SM CLR M01/M08 A3036 RMK AO2 SLP285 T10111083 10000 21039 53003 TSNO $
KIPT 060454Z AUTO 30004KT 10SM CLR M03/M09 A3035 RMK AO2 SLP285 T10281094 400501028 TSNO $
KIPT 060354Z AUTO 29006KT 10SM CLR M03/M09 A3035 RMK AO2 SLP283 T10281094 TSNO $
KIPT 060254Z 25005KT 10SM CLR M02/M08 A3035 RMK AO2 SLP283 T10171078 51007 $
KIPT 060154Z 29004KT 10SM CLR M01/M08 A3034 RMK AO2 SLP281 T10111078 $
KIPT 060054Z 28004KT 10SM FEW050 M01/M07 A3034 RMK AO2 SLP279 T10111067 $
KIPT 052354Z 24003KT 10SM FEW060 M01/M07 A3033 RMK AO2 SLP275 T10061072 10050 21006 51028 $
KIPT 052254Z 30010KT 10SM CLR 01/M07 A3031 RMK AO2 SLP267 T00111072 $
KIPT 052154Z 32008KT 10SM SCT055 03/M09 A3027 RMK AO2 SLP256 T00281089 $
KIPT 052054Z 33012G18KT 10SM BKN060 04/M09 A3024 RMK AO2 SLP245 T00441094 53009 $
KIPT 051954Z 32009KT 10SM OVC060 03/M08 A3023 RMK AO2 SLP242 T00331083 $
KIPT 051854Z 32009KT 10SM BKN060 04/M09 A3022 RMK AO2 WSHFT 1801 SLP237 T00391089 $
KIPT 051821Z 33013KT 10SM BKN060 03/M08 A3022 RMK AO2 WSHFT 1801 T00281083 $
KIPT 051754Z 30012G20KT 10SM SCT050 BKN060 04/M08 A3022 RMK AO2 SLP236 60000 T00441078 10044 20006 50001 $
KIPT 051654Z 35016G25KT 10SM BKN047 03/M07 A3022 RMK AO2 SLP238 T00281067 $
KIPT 051554Z VRB05KT 10SM SCT037 OVC070 02/M06 A3023 RMK AO2 SNE19 SLP241 P0000 T00221056 $
KIPT 051518Z 32005KT 3SM -SN FEW025 BKN035 OVC055 01/M02 A3022 RMK AO2 P0000 T00111022 $
KIPT 051510Z 32004KT 3SM -SN BKN028 BKN041 OVC050 01/M02 A3022 RMK AO2 P0000 T00061022 $
KIPT 051454Z 01005KT 1SM -SN BKN017 BKN025 OVC032 01/M02 A3021 RMK AO2 SNB34 SLP236 P0000 60000 T00061022 51019 $
KIPT 051449Z 01005KT 2SM -SN SCT015 BKN025 OVC032 01/M02 A3021 RMK AO2 SNB34 P0000 $
KIPT 051436Z 36009KT 2SM -SN FEW017 OVC032 01/M03 A3020 RMK AO2 SNB34 PRESRR P0000 T00111033 $
KIPT 051354Z 32010G17KT 10SM BKN040 OVC080 03/M06 A3017 RMK AO2 SLP221 T00281056
KIPT 051254Z 31008KT 10SM SCT045 OVC070 02/M05 A3016 RMK AO2 PRESFR SLP217 T00171050
KIPT 051154Z 31005KT 10SM BKN070 02/M05 A3018 RMK AO2 PRESRR SLP224 7//// T00221050 10044 20017 53023